Aviation Digital Data Service (ADDS)

Output produced by METARs form (1207 UTC 19 January 2019)
found at http://www.aviationweather.gov/metar/data/
 
Forecast for: ZBAA (BEIJING/PEKING , CN)
Text: TAF ZBAA 190920Z 1912/2012 33004MPS CAVOK TX05/2007Z TNM06/22Z
Forecast period: 1200 UTC 19 January 2019 to 1200 UTC 20 January 2019
Forecast type: FROM: standard forecast or significant change
Winds: from the NNW (330 degrees) at 9 MPH (8 knots; 4.1 m/s)
Visibility: 6 or more miles 10+ km)
Ceiling: unknown
Clouds: missing
Weather: no significant weather forecast for this period